sensor_id;sensor_type;location;lat;lon;timestamp;P1;durP1;ratioP1;P2;durP2;ratioP2
74328;SDS011;62745;51.060;13.786;2022-11-12T00:01:07;25.00;;;11.00;;
74328;SDS011;62745;51.060;13.786;2022-11-12T00:03:32;22.13;;;11.75;;
74328;SDS011;62745;51.060;13.786;2022-11-12T00:05:57;20.47;;;9.80;;
74328;SDS011;62745;51.060;13.786;2022-11-12T00:08:23;22.83;;;10.43;;
74328;SDS011;62745;51.060;13.786;2022-11-12T00:10:48;26.53;;;11.53;;
74328;SDS011;62745;51.060;13.786;2022-11-12T00:13:13;26.07;;;11.33;;
74328;SDS011;62745;51.060;13.786;2022-11-12T00:15:39;23.35;;;10.65;;
74328;SDS011;62745;51.060;13.786;2022-11-12T00:18:04;23.95;;;9.00;;
74328;SDS011;62745;51.060;13.786;2022-11-12T00:20:31;24.23;;;9.77;;
74328;SDS011;62745;51.060;13.786;2022-11-12T00:22:56;19.08;;;8.77;;
74328;SDS011;62745;51.060;13.786;2022-11-12T00:25:22;20.98;;;9.85;;
74328;SDS011;62745;51.060;13.786;2022-11-12T00:27:47;23.60;;;9.88;;
74328;SDS011;62745;51.060;13.786;2022-11-12T00:30:12;23.20;;;11.03;;
74328;SDS011;62745;51.060;13.786;2022-11-12T00:32:37;23.37;;;10.60;;
74328;SDS011;62745;51.060;13.786;2022-11-12T00:35:03;21.43;;;11.27;;
74328;SDS011;62745;51.060;13.786;2022-11-12T00:37:29;23.80;;;10.32;;
74328;SDS011;62745;51.060;13.786;2022-11-12T00:39:55;20.05;;;10.13;;
74328;SDS011;62745;51.060;13.786;2022-11-12T00:42:20;20.70;;;9.50;;
74328;SDS011;62745;51.060;13.786;2022-11-12T00:44:45;18.90;;;9.83;;
74328;SDS011;62745;51.060;13.786;2022-11-12T00:47:11;20.45;;;9.80;;
74328;SDS011;62745;51.060;13.786;2022-11-12T00:49:36;19.03;;;9.43;;
74328;SDS011;62745;51.060;13.786;2022-11-12T00:52:01;17.13;;;8.10;;
74328;SDS011;62745;51.060;13.786;2022-11-12T00:54:27;22.42;;;9.88;;
74328;SDS011;62745;51.060;13.786;2022-11-12T00:56:52;17.47;;;9.40;;
74328;SDS011;62745;51.060;13.786;2022-11-12T00:59:17;19.93;;;10.13;;
74328;SDS011;62745;51.060;13.786;2022-11-12T01:01:42;21.40;;;9.70;;
74328;SDS011;62745;51.060;13.786;2022-11-12T01:04:08;25.87;;;11.20;;
74328;SDS011;62745;51.060;13.786;2022-11-12T01:06:33;21.58;;;10.00;;
74328;SDS011;62745;51.060;13.786;2022-11-12T01:08:59;18.20;;;9.73;;
74328;SDS011;62745;51.060;13.786;2022-11-12T01:11:26;21.15;;;9.45;;
74328;SDS011;62745;51.060;13.786;2022-11-12T01:13:56;21.52;;;11.25;;
74328;SDS011;62745;51.060;13.786;2022-11-12T01:16:26;24.40;;;11.43;;
74328;SDS011;62745;51.060;13.786;2022-11-12T01:18:54;26.23;;;11.40;;
74328;SDS011;62745;51.060;13.786;2022-11-12T01:21:22;21.40;;;10.77;;
74328;SDS011;62745;51.060;13.786;2022-11-12T01:23:52;23.10;;;11.30;;
74328;SDS011;62745;51.060;13.786;2022-11-12T01:26:18;20.70;;;10.48;;
74328;SDS011;62745;51.060;13.786;2022-11-12T01:28:45;23.50;;;10.82;;
74328;SDS011;62745;51.060;13.786;2022-11-12T01:31:15;23.88;;;11.00;;
74328;SDS011;62745;51.060;13.786;2022-11-12T01:33:43;22.10;;;10.13;;
74328;SDS011;62745;51.060;13.786;2022-11-12T01:36:10;19.15;;;10.50;;
74328;SDS011;62745;51.060;13.786;2022-11-12T01:38:37;24.00;;;11.50;;
74328;SDS011;62745;51.060;13.786;2022-11-12T01:41:04;22.20;;;11.45;;
74328;SDS011;62745;51.060;13.786;2022-11-12T01:43:31;20.02;;;9.52;;
74328;SDS011;62745;51.060;13.786;2022-11-12T01:45:56;20.93;;;10.37;;
74328;SDS011;62745;51.060;13.786;2022-11-12T01:48:26;19.83;;;8.80;;
74328;SDS011;62745;51.060;13.786;2022-11-12T01:50:57;22.95;;;10.73;;
74328;SDS011;62745;51.060;13.786;2022-11-12T01:53:23;23.40;;;10.13;;
74328;SDS011;62745;51.060;13.786;2022-11-12T01:55:52;18.65;;;8.68;;
74328;SDS011;62745;51.060;13.786;2022-11-12T01:58:21;15.07;;;7.72;;
74328;SDS011;62745;51.060;13.786;2022-11-12T02:00:48;17.48;;;7.55;;
74328;SDS011;62745;51.060;13.786;2022-11-12T02:03:16;19.17;;;8.38;;
74328;SDS011;62745;51.060;13.786;2022-11-12T02:05:45;17.55;;;7.80;;
74328;SDS011;62745;51.060;13.786;2022-11-12T02:08:13;15.73;;;8.05;;
74328;SDS011;62745;51.060;13.786;2022-11-12T02:10:39;17.02;;;7.78;;
74328;SDS011;62745;51.060;13.786;2022-11-12T02:13:05;14.23;;;7.13;;
74328;SDS011;62745;51.060;13.786;2022-11-12T02:16:01;15.93;;;7.40;;
74328;SDS011;62745;51.060;13.786;2022-11-12T02:18:28;14.40;;;8.40;;
74328;SDS011;62745;51.060;13.786;2022-11-12T02:20:54;12.53;;;6.17;;
74328;SDS011;62745;51.060;13.786;2022-11-12T02:23:21;12.57;;;6.05;;
74328;SDS011;62745;51.060;13.786;2022-11-12T02:25:46;14.00;;;6.22;;
74328;SDS011;62745;51.060;13.786;2022-11-12T02:28:11;14.30;;;7.93;;
74328;SDS011;62745;51.060;13.786;2022-11-12T02:30:38;15.77;;;7.72;;
74328;SDS011;62745;51.060;13.786;2022-11-12T02:33:05;15.40;;;7.68;;
74328;SDS011;62745;51.060;13.786;2022-11-12T02:35:31;17.92;;;8.07;;
74328;SDS011;62745;51.060;13.786;2022-11-12T02:37:57;19.48;;;8.93;;
74328;SDS011;62745;51.060;13.786;2022-11-12T02:40:22;15.70;;;7.22;;
74328;SDS011;62745;51.060;13.786;2022-11-12T02:42:47;14.70;;;6.83;;
74328;SDS011;62745;51.060;13.786;2022-11-12T02:45:13;14.33;;;6.77;;
74328;SDS011;62745;51.060;13.786;2022-11-12T02:47:39;14.40;;;6.65;;
74328;SDS011;62745;51.060;13.786;2022-11-12T02:50:05;13.70;;;5.95;;
74328;SDS011;62745;51.060;13.786;2022-11-12T02:52:30;11.80;;;5.65;;
74328;SDS011;62745;51.060;13.786;2022-11-12T02:54:56;11.65;;;5.78;;
74328;SDS011;62745;51.060;13.786;2022-11-12T02:57:21;11.38;;;5.47;;
74328;SDS011;62745;51.060;13.786;2022-11-12T02:59:47;15.27;;;7.18;;
74328;SDS011;62745;51.060;13.786;2022-11-12T03:02:12;14.03;;;6.30;;
74328;SDS011;62745;51.060;13.786;2022-11-12T03:04:37;12.73;;;6.15;;
74328;SDS011;62745;51.060;13.786;2022-11-12T03:07:03;10.70;;;5.90;;
74328;SDS011;62745;51.060;13.786;2022-11-12T03:09:28;12.57;;;5.93;;
74328;SDS011;62745;51.060;13.786;2022-11-12T03:11:53;12.20;;;6.05;;
74328;SDS011;62745;51.060;13.786;2022-11-12T03:14:19;16.20;;;7.03;;
74328;SDS011;62745;51.060;13.786;2022-11-12T03:16:44;16.20;;;7.47;;
74328;SDS011;62745;51.060;13.786;2022-11-12T03:19:09;14.80;;;6.60;;
74328;SDS011;62745;51.060;13.786;2022-11-12T03:21:35;16.10;;;7.27;;
74328;SDS011;62745;51.060;13.786;2022-11-12T03:24:00;17.03;;;7.27;;
74328;SDS011;62745;51.060;13.786;2022-11-12T03:26:26;13.98;;;6.57;;
74328;SDS011;62745;51.060;13.786;2022-11-12T03:28:51;15.00;;;7.27;;
74328;SDS011;62745;51.060;13.786;2022-11-12T03:31:16;15.33;;;7.47;;
74328;SDS011;62745;51.060;13.786;2022-11-12T03:33:42;14.80;;;6.97;;
74328;SDS011;62745;51.060;13.786;2022-11-12T03:36:07;14.25;;;6.70;;
74328;SDS011;62745;51.060;13.786;2022-11-12T03:38:32;14.50;;;5.93;;
74328;SDS011;62745;51.060;13.786;2022-11-12T03:40:58;12.47;;;5.50;;
74328;SDS011;62745;51.060;13.786;2022-11-12T03:43:23;10.63;;;4.43;;
74328;SDS011;62745;51.060;13.786;2022-11-12T03:45:48;11.30;;;4.53;;
74328;SDS011;62745;51.060;13.786;2022-11-12T03:48:14;9.57;;;4.43;;
74328;SDS011;62745;51.060;13.786;2022-11-12T03:50:39;10.30;;;4.20;;
74328;SDS011;62745;51.060;13.786;2022-11-12T03:53:04;11.37;;;5.80;;
74328;SDS011;62745;51.060;13.786;2022-11-12T03:55:30;10.88;;;5.93;;
74328;SDS011;62745;51.060;13.786;2022-11-12T03:57:55;9.98;;;5.30;;
74328;SDS011;62745;51.060;13.786;2022-11-12T04:00:22;12.88;;;5.20;;
74328;SDS011;62745;51.060;13.786;2022-11-12T04:02:49;11.75;;;5.10;;
74328;SDS011;62745;51.060;13.786;2022-11-12T04:05:15;13.50;;;5.43;;
74328;SDS011;62745;51.060;13.786;2022-11-12T04:08:01;11.75;;;5.30;;
74328;SDS011;62745;51.060;13.786;2022-11-12T04:10:46;9.77;;;4.68;;
74328;SDS011;62745;51.060;13.786;2022-11-12T04:13:12;9.88;;;4.95;;
74328;SDS011;62745;51.060;13.786;2022-11-12T04:16:02;9.80;;;4.75;;
74328;SDS011;62745;51.060;13.786;2022-11-12T04:18:52;11.25;;;4.75;;
74328;SDS011;62745;51.060;13.786;2022-11-12T04:24:33;10.15;;;5.35;;
74328;SDS011;62745;51.060;13.786;2022-11-12T04:27:26;9.48;;;4.57;;
74328;SDS011;62745;51.060;13.786;2022-11-12T04:29:54;11.85;;;5.13;;
74328;SDS011;62745;51.060;13.786;2022-11-12T04:32:39;10.05;;;4.35;;
74328;SDS011;62745;51.060;13.786;2022-11-12T04:35:10;9.75;;;4.90;;
74328;SDS011;62745;51.060;13.786;2022-11-12T04:37:35;10.63;;;4.57;;
74328;SDS011;62745;51.060;13.786;2022-11-12T04:40:14;9.93;;;4.65;;
74328;SDS011;62745;51.060;13.786;2022-11-12T04:43:01;11.23;;;4.40;;
74328;SDS011;62745;51.060;13.786;2022-11-12T04:45:47;8.43;;;4.25;;
74328;SDS011;62745;51.060;13.786;2022-11-12T04:48:18;8.73;;;4.05;;
74328;SDS011;62745;51.060;13.786;2022-11-12T04:50:45;9.48;;;4.72;;
74328;SDS011;62745;51.060;13.786;2022-11-12T04:53:12;7.38;;;3.67;;
74328;SDS011;62745;51.060;13.786;2022-11-12T04:55:38;9.23;;;4.53;;
74328;SDS011;62745;51.060;13.786;2022-11-12T04:58:03;7.90;;;3.45;;
74328;SDS011;62745;51.060;13.786;2022-11-12T05:00:29;7.05;;;3.85;;
74328;SDS011;62745;51.060;13.786;2022-11-12T05:02:55;7.85;;;4.03;;
74328;SDS011;62745;51.060;13.786;2022-11-12T05:05:20;7.47;;;3.40;;
74328;SDS011;62745;51.060;13.786;2022-11-12T05:07:46;7.30;;;3.60;;
74328;SDS011;62745;51.060;13.786;2022-11-12T05:10:11;8.17;;;4.10;;
74328;SDS011;62745;51.060;13.786;2022-11-12T05:12:36;7.83;;;3.87;;
74328;SDS011;62745;51.060;13.786;2022-11-12T05:15:02;10.00;;;4.30;;
74328;SDS011;62745;51.060;13.786;2022-11-12T05:17:27;9.75;;;4.45;;
74328;SDS011;62745;51.060;13.786;2022-11-12T05:19:53;11.40;;;4.67;;
74328;SDS011;62745;51.060;13.786;2022-11-12T05:22:18;10.47;;;4.57;;
74328;SDS011;62745;51.060;13.786;2022-11-12T05:24:43;10.55;;;4.05;;
74328;SDS011;62745;51.060;13.786;2022-11-12T05:27:10;13.07;;;4.90;;
74328;SDS011;62745;51.060;13.786;2022-11-12T05:29:38;13.07;;;5.35;;
74328;SDS011;62745;51.060;13.786;2022-11-12T05:32:04;10.95;;;5.57;;
74328;SDS011;62745;51.060;13.786;2022-11-12T05:34:31;13.85;;;6.38;;
74328;SDS011;62745;51.060;13.786;2022-11-12T05:36:56;11.13;;;5.40;;
74328;SDS011;62745;51.060;13.786;2022-11-12T05:39:22;12.77;;;5.53;;
74328;SDS011;62745;51.060;13.786;2022-11-12T05:41:47;11.27;;;5.47;;
74328;SDS011;62745;51.060;13.786;2022-11-12T05:44:13;11.43;;;5.68;;
74328;SDS011;62745;51.060;13.786;2022-11-12T05:46:38;11.97;;;5.93;;
74328;SDS011;62745;51.060;13.786;2022-11-12T05:49:03;14.30;;;6.97;;
74328;SDS011;62745;51.060;13.786;2022-11-12T05:51:29;14.18;;;6.93;;
74328;SDS011;62745;51.060;13.786;2022-11-12T05:53:54;16.45;;;6.95;;
74328;SDS011;62745;51.060;13.786;2022-11-12T05:56:19;12.52;;;5.72;;
74328;SDS011;62745;51.060;13.786;2022-11-12T05:58:45;11.02;;;4.95;;
74328;SDS011;62745;51.060;13.786;2022-11-12T06:01:10;8.87;;;4.00;;
74328;SDS011;62745;51.060;13.786;2022-11-12T06:03:35;11.63;;;4.90;;
74328;SDS011;62745;51.060;13.786;2022-11-12T06:06:01;12.03;;;5.23;;
74328;SDS011;62745;51.060;13.786;2022-11-12T06:08:26;11.80;;;5.80;;
74328;SDS011;62745;51.060;13.786;2022-11-12T06:10:52;12.27;;;5.35;;
74328;SDS011;62745;51.060;13.786;2022-11-12T06:13:19;9.55;;;4.50;;
74328;SDS011;62745;51.060;13.786;2022-11-12T06:15:48;8.45;;;3.75;;
74328;SDS011;62745;51.060;13.786;2022-11-12T06:18:14;9.00;;;3.70;;
74328;SDS011;62745;51.060;13.786;2022-11-12T06:20:39;7.77;;;3.80;;
74328;SDS011;62745;51.060;13.786;2022-11-12T06:23:04;9.00;;;3.60;;
74328;SDS011;62745;51.060;13.786;2022-11-12T06:25:30;8.55;;;3.97;;
74328;SDS011;62745;51.060;13.786;2022-11-12T06:27:56;10.27;;;3.90;;
74328;SDS011;62745;51.060;13.786;2022-11-12T06:30:21;7.03;;;3.63;;
74328;SDS011;62745;51.060;13.786;2022-11-12T06:32:47;10.13;;;3.80;;
74328;SDS011;62745;51.060;13.786;2022-11-12T06:35:12;7.70;;;3.72;;
74328;SDS011;62745;51.060;13.786;2022-11-12T06:37:39;10.40;;;3.20;;
74328;SDS011;62745;51.060;13.786;2022-11-12T06:40:05;8.32;;;4.05;;
74328;SDS011;62745;51.060;13.786;2022-11-12T06:42:30;9.18;;;4.40;;
74328;SDS011;62745;51.060;13.786;2022-11-12T06:44:56;7.93;;;4.10;;
74328;SDS011;62745;51.060;13.786;2022-11-12T06:47:21;10.17;;;4.10;;
74328;SDS011;62745;51.060;13.786;2022-11-12T06:49:46;11.07;;;3.58;;
74328;SDS011;62745;51.060;13.786;2022-11-12T06:52:11;8.97;;;3.93;;
74328;SDS011;62745;51.060;13.786;2022-11-12T06:54:38;9.00;;;4.20;;
74328;SDS011;62745;51.060;13.786;2022-11-12T06:57:03;9.90;;;4.17;;
74328;SDS011;62745;51.060;13.786;2022-11-12T06:59:29;9.90;;;4.00;;
74328;SDS011;62745;51.060;13.786;2022-11-12T07:01:54;10.43;;;3.93;;
74328;SDS011;62745;51.060;13.786;2022-11-12T07:04:19;10.83;;;4.20;;
74328;SDS011;62745;51.060;13.786;2022-11-12T07:06:44;10.23;;;4.80;;
74328;SDS011;62745;51.060;13.786;2022-11-12T07:09:10;10.57;;;4.83;;
74328;SDS011;62745;51.060;13.786;2022-11-12T07:11:35;11.63;;;5.25;;
74328;SDS011;62745;51.060;13.786;2022-11-12T07:14:03;11.43;;;5.18;;
74328;SDS011;62745;51.060;13.786;2022-11-12T07:16:30;13.68;;;5.38;;
74328;SDS011;62745;51.060;13.786;2022-11-12T07:18:55;13.23;;;5.82;;
74328;SDS011;62745;51.060;13.786;2022-11-12T07:21:21;15.35;;;6.90;;
74328;SDS011;62745;51.060;13.786;2022-11-12T07:23:46;14.57;;;6.90;;
74328;SDS011;62745;51.060;13.786;2022-11-12T07:26:13;13.82;;;6.72;;
74328;SDS011;62745;51.060;13.786;2022-11-12T07:28:43;13.88;;;6.88;;
74328;SDS011;62745;51.060;13.786;2022-11-12T07:31:10;14.18;;;6.30;;
74328;SDS011;62745;51.060;13.786;2022-11-12T07:33:36;13.35;;;6.68;;
74328;SDS011;62745;51.060;13.786;2022-11-12T07:36:12;15.80;;;7.22;;
74328;SDS011;62745;51.060;13.786;2022-11-12T07:38:39;14.32;;;7.32;;
74328;SDS011;62745;51.060;13.786;2022-11-12T07:43:41;16.20;;;7.93;;
74328;SDS011;62745;51.060;13.786;2022-11-12T07:46:12;16.63;;;7.72;;
74328;SDS011;62745;51.060;13.786;2022-11-12T07:48:39;17.20;;;8.10;;
74328;SDS011;62745;51.060;13.786;2022-11-12T07:51:06;18.55;;;8.38;;
74328;SDS011;62745;51.060;13.786;2022-11-12T07:53:35;17.23;;;8.30;;
74328;SDS011;62745;51.060;13.786;2022-11-12T07:56:01;17.25;;;7.80;;
74328;SDS011;62745;51.060;13.786;2022-11-12T07:58:29;15.38;;;7.95;;
74328;SDS011;62745;51.060;13.786;2022-11-12T08:00:55;17.15;;;7.97;;
74328;SDS011;62745;51.060;13.786;2022-11-12T08:03:21;13.47;;;7.53;;
74328;SDS011;62745;51.060;13.786;2022-11-12T08:05:46;17.87;;;8.17;;
74328;SDS011;62745;51.060;13.786;2022-11-12T08:08:11;15.63;;;7.60;;
74328;SDS011;62745;51.060;13.786;2022-11-12T08:10:37;16.27;;;7.70;;
74328;SDS011;62745;51.060;13.786;2022-11-12T08:13:02;16.80;;;8.03;;
74328;SDS011;62745;51.060;13.786;2022-11-12T08:15:28;14.02;;;7.75;;
74328;SDS011;62745;51.060;13.786;2022-11-12T08:17:54;18.40;;;9.15;;
74328;SDS011;62745;51.060;13.786;2022-11-12T08:20:19;15.13;;;8.13;;
74328;SDS011;62745;51.060;13.786;2022-11-12T08:22:45;14.32;;;8.10;;
74328;SDS011;62745;51.060;13.786;2022-11-12T08:25:10;13.80;;;7.80;;
74328;SDS011;62745;51.060;13.786;2022-11-12T08:27:35;17.75;;;8.20;;
74328;SDS011;62745;51.060;13.786;2022-11-12T08:30:01;16.10;;;8.80;;
74328;SDS011;62745;51.060;13.786;2022-11-12T08:32:27;14.10;;;7.07;;
74328;SDS011;62745;51.060;13.786;2022-11-12T08:34:52;15.77;;;8.90;;
74328;SDS011;62745;51.060;13.786;2022-11-12T08:37:17;16.63;;;8.77;;
74328;SDS011;62745;51.060;13.786;2022-11-12T08:39:43;17.60;;;8.30;;
74328;SDS011;62745;51.060;13.786;2022-11-12T08:42:08;14.82;;;8.05;;
74328;SDS011;62745;51.060;13.786;2022-11-12T08:44:33;14.13;;;7.37;;
74328;SDS011;62745;51.060;13.786;2022-11-12T08:46:59;12.93;;;6.33;;
74328;SDS011;62745;51.060;13.786;2022-11-12T08:49:24;12.75;;;7.05;;
74328;SDS011;62745;51.060;13.786;2022-11-12T08:51:50;12.07;;;7.03;;
74328;SDS011;62745;51.060;13.786;2022-11-12T08:54:15;12.02;;;6.75;;
74328;SDS011;62745;51.060;13.786;2022-11-12T08:56:41;13.60;;;7.22;;
74328;SDS011;62745;51.060;13.786;2022-11-12T08:59:06;14.27;;;7.13;;
74328;SDS011;62745;51.060;13.786;2022-11-12T09:01:31;13.33;;;7.10;;
74328;SDS011;62745;51.060;13.786;2022-11-12T09:03:56;12.50;;;6.80;;
74328;SDS011;62745;51.060;13.786;2022-11-12T09:06:22;13.27;;;7.03;;
74328;SDS011;62745;51.060;13.786;2022-11-12T09:08:47;12.82;;;7.22;;
74328;SDS011;62745;51.060;13.786;2022-11-12T09:11:12;13.13;;;7.13;;
74328;SDS011;62745;51.060;13.786;2022-11-12T09:13:38;11.60;;;6.57;;
74328;SDS011;62745;51.060;13.786;2022-11-12T09:16:04;13.73;;;7.30;;
74328;SDS011;62745;51.060;13.786;2022-11-12T09:18:31;10.25;;;6.18;;
74328;SDS011;62745;51.060;13.786;2022-11-12T09:21:01;11.40;;;6.63;;
74328;SDS011;62745;51.060;13.786;2022-11-12T09:23:27;12.77;;;5.97;;
74328;SDS011;62745;51.060;13.786;2022-11-12T09:25:53;12.05;;;6.65;;
74328;SDS011;62745;51.060;13.786;2022-11-12T09:28:20;11.23;;;5.57;;
74328;SDS011;62745;51.060;13.786;2022-11-12T09:30:46;10.85;;;5.60;;
74328;SDS011;62745;51.060;13.786;2022-11-12T09:33:14;10.25;;;5.97;;
74328;SDS011;62745;51.060;13.786;2022-11-12T09:35:41;10.20;;;6.32;;
74328;SDS011;62745;51.060;13.786;2022-11-12T09:38:07;10.40;;;6.13;;
74328;SDS011;62745;51.060;13.786;2022-11-12T09:40:40;9.75;;;6.07;;
74328;SDS011;62745;51.060;13.786;2022-11-12T09:45:55;8.73;;;4.80;;
74328;SDS011;62745;51.060;13.786;2022-11-12T09:48:26;8.82;;;5.88;;
74328;SDS011;62745;51.060;13.786;2022-11-12T09:51:01;11.60;;;5.65;;
74328;SDS011;62745;51.060;13.786;2022-11-12T09:56:19;10.60;;;6.20;;
74328;SDS011;62745;51.060;13.786;2022-11-12T09:58:46;11.52;;;6.72;;
74328;SDS011;62745;51.060;13.786;2022-11-12T10:01:13;11.68;;;6.95;;
74328;SDS011;62745;51.060;13.786;2022-11-12T10:06:23;10.57;;;6.50;;
74328;SDS011;62745;51.060;13.786;2022-11-12T10:08:59;10.10;;;6.53;;
74328;SDS011;62745;51.060;13.786;2022-11-12T10:11:34;10.13;;;6.60;;
74328;SDS011;62745;51.060;13.786;2022-11-12T10:14:48;9.30;;;5.82;;
74328;SDS011;62745;51.060;13.786;2022-11-12T10:18:04;9.23;;;5.75;;
74328;SDS011;62745;51.060;13.786;2022-11-12T10:20:44;11.93;;;6.72;;
74328;SDS011;62745;51.060;13.786;2022-11-12T10:23:20;9.40;;;5.35;;
74328;SDS011;62745;51.060;13.786;2022-11-12T10:25:50;10.10;;;6.25;;
74328;SDS011;62745;51.060;13.786;2022-11-12T10:31:03;14.60;;;6.68;;
74328;SDS011;62745;51.060;13.786;2022-11-12T10:33:35;9.52;;;6.00;;
74328;SDS011;62745;51.060;13.786;2022-11-12T10:38:54;9.82;;;6.38;;
74328;SDS011;62745;51.060;13.786;2022-11-12T10:41:21;9.70;;;5.60;;
74328;SDS011;62745;51.060;13.786;2022-11-12T10:46:23;8.57;;;4.80;;
74328;SDS011;62745;51.060;13.786;2022-11-12T10:48:56;10.75;;;5.35;;
74328;SDS011;62745;51.060;13.786;2022-11-12T10:51:25;12.05;;;6.13;;
74328;SDS011;62745;51.060;13.786;2022-11-12T10:53:54;12.43;;;5.35;;
74328;SDS011;62745;51.060;13.786;2022-11-12T10:56:26;10.70;;;6.50;;
74328;SDS011;62745;51.060;13.786;2022-11-12T10:59:08;13.85;;;6.10;;
74328;SDS011;62745;51.060;13.786;2022-11-12T11:01:41;8.63;;;5.25;;
74328;SDS011;62745;51.060;13.786;2022-11-12T11:04:14;9.23;;;5.05;;
74328;SDS011;62745;51.060;13.786;2022-11-12T11:06:44;10.20;;;5.03;;
74328;SDS011;62745;51.060;13.786;2022-11-12T11:11:38;8.70;;;4.95;;
74328;SDS011;62745;51.060;13.786;2022-11-12T11:14:24;8.68;;;5.85;;
74328;SDS011;62745;51.060;13.786;2022-11-12T11:16:52;9.80;;;5.30;;
74328;SDS011;62745;51.060;13.786;2022-11-12T11:19:20;9.38;;;5.50;;
74328;SDS011;62745;51.060;13.786;2022-11-12T11:29:52;8.43;;;5.57;;
74328;SDS011;62745;51.060;13.786;2022-11-12T11:35:45;8.68;;;5.00;;
74328;SDS011;62745;51.060;13.786;2022-11-12T11:43:56;8.70;;;4.90;;
74328;SDS011;62745;51.060;13.786;2022-11-12T11:46:30;7.60;;;4.63;;
74328;SDS011;62745;51.060;13.786;2022-11-12T11:54:50;9.90;;;5.85;;
74328;SDS011;62745;51.060;13.786;2022-11-12T11:57:27;8.35;;;5.28;;
74328;SDS011;62745;51.060;13.786;2022-11-12T12:16:16;8.75;;;4.50;;
74328;SDS011;62745;51.060;13.786;2022-11-12T12:18:46;10.35;;;6.05;;
74328;SDS011;62745;51.060;13.786;2022-11-12T12:21:23;9.25;;;5.25;;
74328;SDS011;62745;51.060;13.786;2022-11-12T12:24:00;8.23;;;5.15;;
74328;SDS011;62745;51.060;13.786;2022-11-12T12:26:31;9.18;;;5.22;;
74328;SDS011;62745;51.060;13.786;2022-11-12T12:29:16;8.07;;;4.43;;
74328;SDS011;62745;51.060;13.786;2022-11-12T12:31:53;9.70;;;4.40;;
74328;SDS011;62745;51.060;13.786;2022-11-12T12:34:36;8.00;;;5.30;;
74328;SDS011;62745;51.060;13.786;2022-11-12T12:37:09;9.02;;;4.78;;
74328;SDS011;62745;51.060;13.786;2022-11-12T12:42:21;7.50;;;4.47;;
74328;SDS011;62745;51.060;13.786;2022-11-12T12:44:53;9.68;;;4.35;;
74328;SDS011;62745;51.060;13.786;2022-11-12T12:47:28;8.10;;;4.63;;
74328;SDS011;62745;51.060;13.786;2022-11-12T12:50:10;9.00;;;4.70;;
74328;SDS011;62745;51.060;13.786;2022-11-12T12:55:39;7.68;;;4.32;;
74328;SDS011;62745;51.060;13.786;2022-11-12T12:58:24;7.95;;;3.95;;
74328;SDS011;62745;51.060;13.786;2022-11-12T13:01:35;6.93;;;3.95;;
74328;SDS011;62745;51.060;13.786;2022-11-12T13:08:45;6.40;;;3.50;;
74328;SDS011;62745;51.060;13.786;2022-11-12T13:15:12;6.68;;;3.70;;
74328;SDS011;62745;51.060;13.786;2022-11-12T13:17:40;6.97;;;3.88;;
74328;SDS011;62745;51.060;13.786;2022-11-12T13:20:17;9.52;;;5.13;;
74328;SDS011;62745;51.060;13.786;2022-11-12T13:22:59;7.80;;;4.10;;
74328;SDS011;62745;51.060;13.786;2022-11-12T13:25:28;6.78;;;3.58;;
74328;SDS011;62745;51.060;13.786;2022-11-12T13:45:58;6.07;;;3.35;;
74328;SDS011;62745;51.060;13.786;2022-11-12T13:48:41;9.18;;;3.88;;
74328;SDS011;62745;51.060;13.786;2022-11-12T13:51:43;6.80;;;3.58;;
74328;SDS011;62745;51.060;13.786;2022-11-12T13:54:25;6.18;;;3.63;;
74328;SDS011;62745;51.060;13.786;2022-11-12T13:56:51;7.65;;;3.47;;
74328;SDS011;62745;51.060;13.786;2022-11-12T13:59:17;6.93;;;3.67;;
74328;SDS011;62745;51.060;13.786;2022-11-12T14:01:44;9.73;;;3.97;;
74328;SDS011;62745;51.060;13.786;2022-11-12T14:04:12;8.20;;;3.53;;
74328;SDS011;62745;51.060;13.786;2022-11-12T14:06:40;8.68;;;4.20;;
74328;SDS011;62745;51.060;13.786;2022-11-12T14:11:55;6.70;;;3.40;;
74328;SDS011;62745;51.060;13.786;2022-11-12T14:14:34;8.82;;;3.97;;
74328;SDS011;62745;51.060;13.786;2022-11-12T14:17:18;7.45;;;3.58;;
74328;SDS011;62745;51.060;13.786;2022-11-12T14:22:44;7.80;;;3.90;;
74328;SDS011;62745;51.060;13.786;2022-11-12T14:25:12;7.38;;;3.90;;
74328;SDS011;62745;51.060;13.786;2022-11-12T14:27:41;7.40;;;3.58;;
74328;SDS011;62745;51.060;13.786;2022-11-12T14:32:35;8.57;;;3.83;;
74328;SDS011;62745;51.060;13.786;2022-11-12T14:37:50;6.13;;;3.85;;
74328;SDS011;62745;51.060;13.786;2022-11-12T14:40:20;7.43;;;3.47;;
74328;SDS011;62745;51.060;13.786;2022-11-12T14:42:46;6.95;;;3.70;;
74328;SDS011;62745;51.060;13.786;2022-11-12T14:45:15;7.20;;;4.30;;
74328;SDS011;62745;51.060;13.786;2022-11-12T14:47:45;7.53;;;3.53;;
74328;SDS011;62745;51.060;13.786;2022-11-12T14:50:17;8.88;;;4.05;;
74328;SDS011;62745;51.060;13.786;2022-11-12T14:53:01;9.95;;;3.50;;
74328;SDS011;62745;51.060;13.786;2022-11-12T14:55:35;9.32;;;4.28;;
74328;SDS011;62745;51.060;13.786;2022-11-12T14:58:02;9.43;;;4.38;;
74328;SDS011;62745;51.060;13.786;2022-11-12T15:02:53;9.13;;;4.70;;
74328;SDS011;62745;51.060;13.786;2022-11-12T15:05:20;8.10;;;4.55;;
74328;SDS011;62745;51.060;13.786;2022-11-12T15:08:00;6.88;;;3.70;;
74328;SDS011;62745;51.060;13.786;2022-11-12T15:10:36;8.65;;;4.55;;
74328;SDS011;62745;51.060;13.786;2022-11-12T15:15:38;8.02;;;3.88;;
74328;SDS011;62745;51.060;13.786;2022-11-12T15:18:14;8.07;;;4.57;;
74328;SDS011;62745;51.060;13.786;2022-11-12T15:20:42;10.90;;;7.68;;
74328;SDS011;62745;51.060;13.786;2022-11-12T15:23:17;14.63;;;10.00;;
74328;SDS011;62745;51.060;13.786;2022-11-12T15:25:43;19.10;;;11.70;;
74328;SDS011;62745;51.060;13.786;2022-11-12T15:28:22;13.18;;;9.23;;
74328;SDS011;62745;51.060;13.786;2022-11-12T15:31:05;10.35;;;6.88;;
74328;SDS011;62745;51.060;13.786;2022-11-12T15:33:39;8.90;;;5.03;;
74328;SDS011;62745;51.060;13.786;2022-11-12T15:36:11;8.53;;;5.23;;
74328;SDS011;62745;51.060;13.786;2022-11-12T15:38:40;10.43;;;5.93;;
74328;SDS011;62745;51.060;13.786;2022-11-12T15:41:28;8.40;;;5.03;;
74328;SDS011;62745;51.060;13.786;2022-11-12T15:43:54;11.43;;;5.85;;
74328;SDS011;62745;51.060;13.786;2022-11-12T15:46:20;8.75;;;4.53;;
74328;SDS011;62745;51.060;13.786;2022-11-12T15:48:46;8.15;;;3.95;;
74328;SDS011;62745;51.060;13.786;2022-11-12T15:51:11;7.90;;;4.25;;
74328;SDS011;62745;51.060;13.786;2022-11-12T15:53:40;9.60;;;4.15;;
74328;SDS011;62745;51.060;13.786;2022-11-12T15:56:07;12.47;;;5.30;;
74328;SDS011;62745;51.060;13.786;2022-11-12T15:58:37;9.27;;;4.78;;
74328;SDS011;62745;51.060;13.786;2022-11-12T16:01:04;10.57;;;4.60;;
74328;SDS011;62745;51.060;13.786;2022-11-12T16:03:30;7.10;;;4.32;;
74328;SDS011;62745;51.060;13.786;2022-11-12T16:05:55;7.78;;;3.83;;
74328;SDS011;62745;51.060;13.786;2022-11-12T16:08:20;10.38;;;3.95;;
74328;SDS011;62745;51.060;13.786;2022-11-12T16:10:46;7.47;;;3.70;;
74328;SDS011;62745;51.060;13.786;2022-11-12T16:13:28;8.90;;;4.20;;
74328;SDS011;62745;51.060;13.786;2022-11-12T16:15:57;8.43;;;4.35;;
74328;SDS011;62745;51.060;13.786;2022-11-12T16:18:22;7.40;;;3.58;;
74328;SDS011;62745;51.060;13.786;2022-11-12T16:20:48;6.20;;;3.30;;
74328;SDS011;62745;51.060;13.786;2022-11-12T16:23:14;8.05;;;4.63;;
74328;SDS011;62745;51.060;13.786;2022-11-12T16:25:40;7.70;;;3.70;;
74328;SDS011;62745;51.060;13.786;2022-11-12T16:28:14;8.98;;;4.38;;